• Join FlightAware (Why Join?)
  • Login
  • US Flag GB Flag 
04:18 EDT


 

Airport Tracker/Info


-or-


 

Live Flight TrackerFlight Track Log ✈ AWE3418 ✈ 19-Apr-2013 ✈ KCMH - KPHL

Flight Track Log - Related Links

Times and Time Zones

All times are in EDT time to prevent confusion due to time zone crossing. See the AWE3418 flight status page for this flight to view local times or setup timezone preferences in your user account.

Time Position Orientation Groundspeed Altitude Reporting Facility
EDT Latitude Longitude Course Direction KTS MPH feet Rate Location/Type
16:21 40.0028 -82.9075 81° East 148 170 1,400  Level Indianapolis Center
16:23 40.0057 -82.7173 78° East  Level Estimated
16:23 39.9536 -82.9736 78° East 232 267 6,000  Level Indianapolis Center
16:24 40.0529 -82.3481 79° East  Level FlightAware Approximate
16:24 39.9508 -82.8639 92° East 298 343 8,300  Level Indianapolis Center
16:25 40.0735 -82.2144 79° East  Level FlightAware Approximate
16:25 39.9544 -82.7433 88° East 326 375 10,500  Level Indianapolis Center
16:26 40.0921 -82.0803 81° East  Level FlightAware Approximate
16:26 39.9703 -82.6142 81° East 353 406 12,100  Level Indianapolis Center
16:27 39.9839 -82.4786 82° East 371 427 14,000 1,800 Climbing Indianapolis Center
16:28 40.0017 -82.3097 82° East 397 457 15,900 1,740 Climbing Indianapolis Center
16:29 40.0175 -82.1622 82° East 405 466 17,600 1,500 Climbing Indianapolis Center
16:30 40.0336 -82.0097 82° East 418 481 19,100 1,440 Climbing Indianapolis Center
16:31 40.0497 -81.8514 82° East 433 498 20,600 1,320 Climbing Indianapolis Center
16:33 40.0653 -81.6992 82° East 443 510 21,900 1,500 Climbing Indianapolis Center
16:34 40.0847 -81.5061 82° East 455 524 23,700 1,500 Climbing Indianapolis Center
16:35 40.1008 -81.3403 83° East 458 527 25,100 1,200 Climbing Indianapolis Center
16:36 40.1169 -81.1725 83° East 463 533 26,300 1,020 Climbing Indianapolis Center
16:36 40.1264 -81.0881 82° East 455 524 26,600 1,500 Climbing Cleveland Center
16:37 40.1417 -80.9197 83° East 465 535 28,500 1,200 Climbing Cleveland Center
16:38 40.1586 -80.7514 82° East 465 535 29,000 240 Climbing Cleveland Center
16:39 40.1736 -80.5831 83° East 465 535 29,000  Level Cleveland Center
16:40 40.1881 -80.4336 83° East 465 535 29,000  Level Cleveland Center
16:41 40.2022 -80.2678 84° East 465 535 29,000  Level Cleveland Center
16:42 40.2142 -80.0964 85° East 465 535 29,000  Level Cleveland Center
16:43 40.2236 -79.9197 86° East 470 541 29,000  Level Cleveland Center
16:44 40.2331 -79.7428 86° East 481 554 29,000  Level Cleveland Center
16:45 40.2439 -79.5603 85° East 486 559 29,000  Level Cleveland Center
16:46 40.2528 -79.3861 86° East 486 559 29,000  Level Cleveland Center
16:47 40.2569 -79.2039 88° East 486 559 29,000  Level Cleveland Center
16:48 40.2672 -79.0267 86° East 486 559 29,000  Level Cleveland Center
16:49 40.2750 -78.8442 87° East 496 571 29,000 -600 Level Cleveland Center
16:50 40.2844 -78.6617 86° East 496 571 27,800 -1,860 Descending Cleveland Center
16:51 40.2936 -78.4681 86° East 494 568 25,300 -1,140 Descending Cleveland Center
16:54 40.3067 -78.0742 87° East 457 526 24,000 -780 Descending New York Center
16:55 40.3117 -77.9222 87° East 436 502 22,800 -1,380 Descending New York Center
16:55 40.3039 -77.7744 94° East 416 479 21,400 -1,500 Descending New York Center
16:56 40.2833 -77.6253 100° East 410 472 19,900 -1,380 Descending New York Center
16:57 40.2658 -77.4956 100° East 405 466 18,700 -1,500 Descending New York Center
16:59 40.2531 -77.3528 97° East 400 460 16,900 -960 Descending New York Center
16:59 40.2386 -77.1992 97° East 390 449 16,900  Level New York Center
17:00 40.2247 -77.0700 98° East 390 449 16,900  Level New York Center
17:01 40.2100 -76.9111 97° East 398 458 16,900  Level New York Center
17:03 40.1944 -76.7683 98° East 393 452 16,900 -780 Level New York Center
17:04 40.1819 -76.6450 98° East 387 445 15,400 -1,740 Descending New York Center
17:05 40.1675 -76.5133 98° East 381 438 13,500 -2,040 Descending New York Center
17:05 40.1517 -76.3653 98° East 375 432 11,400 -1,680 Descending New York Center
17:06 40.1436 -76.2994 99° East 368 423 11,100 -360 Descending FAA TRACON SMA TRACON (SMA)
17:06 40.1392 -76.2589 98° East 366 421 11,100  Level FAA TRACON SMA TRACON (SMA)
17:07 40.1333 -76.2086 99° East 365 420 11,100  Level FAA TRACON SMA TRACON (SMA)
17:07 40.1292 -76.1678 98° East 366 421 11,100  Level FAA TRACON SMA TRACON (SMA)
17:07 40.1269 -76.1303 94° East 366 421 11,100  Level FAA TRACON SMA TRACON (SMA)
17:08 40.1194 -76.0778 101° East 361 415 11,100  Level FAA TRACON SMA TRACON (SMA)
17:08 40.1153 -76.0417 99° East 352 405 11,100 -600 Level FAA TRACON SMA TRACON (SMA)
17:08 40.1122 -76.0075 97° East 327 376 10,700 -1,440 Descending FAA TRACON SMA TRACON (SMA)
17:09 40.1061 -75.9594 99° East 325 374 10,200 -1,320 Descending FAA TRACON SMA TRACON (SMA)
17:09 40.1019 -75.9236 99° East 325 374 9,800 -1,320 Descending FAA TRACON SMA TRACON (SMA)
17:09 40.0981 -75.8883 98° East 324 373 9,300 -1,500 Descending FAA TRACON SMA TRACON (SMA)
17:10 40.0933 -75.8442 98° East 324 373 8,800 -1,380 Descending FAA TRACON SMA TRACON (SMA)
17:10 40.0903 -75.8150 98° East 322 371 8,400 -1,080 Descending FAA TRACON SMA TRACON (SMA)
17:10 40.0847 -75.7747 100° East 320 368 8,100 -360 Descending FAA TRACON SMA TRACON (SMA)
17:11 40.0828 -75.6917 92° East 321 369 8,100  Level FAA TRACON SMA TRACON (SMA)
17:11 40.0828 -75.6572 90° East 322 371 8,100  Level FAA TRACON SMA TRACON (SMA)
17:12 40.0822 -75.6125 91° East 320 368 8,100  Level FAA TRACON SMA TRACON (SMA)
17:12 40.0825 -75.5756 89° East 318 366 8,100  Level FAA TRACON SMA TRACON (SMA)
17:12 40.0825 -75.5422 90° East 320 368 8,100  Level FAA TRACON SMA TRACON (SMA)
17:13 40.0822 -75.4944 90° East 322 371 8,100  Level FAA TRACON SMA TRACON (SMA)
17:13 40.0819 -75.4578 91° East 323 372 8,100  Level FAA TRACON SMA TRACON (SMA)
17:13 40.0817 -75.4264 91° East 316 364 8,100  Level FAA TRACON SMA TRACON (SMA)
17:14 40.0819 -75.3933 89° East 284 327 8,100 -180 Level FAA TRACON SMA TRACON (SMA)
17:14 40.0828 -75.3533 88° East 279 321 8,000 -780 Descending FAA TRACON SMA TRACON (SMA)
17:14 40.0833 -75.3222 89° East 277 319 7,600 -1,080 Descending FAA TRACON SMA TRACON (SMA)
17:15 40.0831 -75.2917 91° East 271 312 7,300 -1,200 Descending FAA TRACON SMA TRACON (SMA)
17:15 40.0792 -75.2550 98° East 262 302 6,800 -1,380 Descending FAA TRACON SMA TRACON (SMA)
17:15 40.0767 -75.2261 96° East 268 308 6,400 -1,080 Descending FAA TRACON SMA TRACON (SMA)
17:16 40.0733 -75.1969 98° East 263 303 6,100 -600 Descending FAA TRACON SMA TRACON (SMA)
17:16 40.0706 -75.1608 96° East 257 296 6,000 -180 Descending FAA TRACON SMA TRACON (SMA)
17:16 40.0678 -75.1325 97° East 256 295 6,000  Level FAA TRACON SMA TRACON (SMA)
17:17 40.0650 -75.1044 97° East 254 292 6,000  Level FAA TRACON SMA TRACON (SMA)
17:17 40.0619 -75.0692 96° East 254 292 6,000  Level FAA TRACON SMA TRACON (SMA)
17:17 40.0603 -75.0433 95° East 255 293 6,000  Level FAA TRACON SMA TRACON (SMA)
17:18 40.0558 -75.0119 100° East 254 292 6,000  Level FAA TRACON SMA TRACON (SMA)
17:18 40.0553 -74.9883 92° East 210 242 6,000 -600 Level FAA TRACON SMA TRACON (SMA)
17:18 40.0533 -74.9606 95° East 209 241 5,600 -1,200 Descending FAA TRACON SMA TRACON (SMA)
17:19 40.0447 -74.9419 121° Southeast 174 200 5,200 -900 Descending FAA TRACON SMA TRACON (SMA)
17:19 40.0328 -74.9342 153° Southeast 156 180 5,000 -1,080 Descending FAA TRACON SMA TRACON (SMA)
17:19 40.0175 -74.9361 186° South 131 151 4,500 -1,320 Descending FAA TRACON SMA TRACON (SMA)
17:20 40.0069 -74.9400 196° South 135 155 4,100 -900 Descending FAA TRACON SMA TRACON (SMA)
17:20 39.9928 -74.9450 195° South 135 155 3,900 -960 Descending FAA TRACON SMA TRACON (SMA)
17:20 39.9828 -74.9483 194° South 135 155 3,500 -1,440 Descending FAA TRACON SMA TRACON (SMA)
17:21 39.9706 -74.9544 201° Southwest 138 159 3,000 -1,500 Descending FAA TRACON SMA TRACON (SMA)
17:21 39.9628 -74.9686 234° Southwest 151 174 2,500 -1,380 Descending FAA TRACON SMA TRACON (SMA)
17:21 39.9528 -74.9856 232° Southwest 162 186 2,100 -600 Descending FAA TRACON SMA TRACON (SMA)
17:22 39.9442 -75.0000 232° Southwest 163 188 2,100  Level FAA TRACON SMA TRACON (SMA)
17:22 39.9369 -75.0147 237° Southwest 155 178 2,100  Level FAA TRACON SMA TRACON (SMA)
17:22 39.9275 -75.0319 234° Southwest 153 176 2,100 120 Level FAA TRACON SMA TRACON (SMA)
17:23 39.9203 -75.0458 236° Southwest 151 174 2,200  Climbing FAA TRACON SMA TRACON (SMA)
17:23 39.9108 -75.0625 234° Southwest 152 175 2,100 -180 Descending FAA TRACON SMA TRACON (SMA)
17:23 39.9036 -75.0772 237° Southwest 153 176 2,100 -180 Level FAA TRACON SMA TRACON (SMA)
17:24 39.9000 -75.0953 255° West 156 180 2,000 -600 Descending FAA TRACON SMA TRACON (SMA)
17:24 39.8969 -75.1122 257° West 160 184 1,700 -900 Descending FAA TRACON SMA TRACON (SMA)
17:24 39.8928 -75.1336 256° West 148 170 1,400 -900 Descending FAA TRACON SMA TRACON (SMA)